createdAt,value
2023-05-04T00:02:22.833Z,0.98
2023-05-04T00:04:52.659Z,1.55
2023-05-04T00:07:20.390Z,0.95
2023-05-04T00:09:47.289Z,0.98
2023-05-04T00:12:14.211Z,0.80
2023-05-04T00:14:42.658Z,0.90
2023-05-04T00:17:09.789Z,1.17
2023-05-04T00:19:37.229Z,1.13
2023-05-04T00:22:04.219Z,0.80
2023-05-04T00:24:31.163Z,0.90
2023-05-04T00:26:58.009Z,0.77
2023-05-04T00:29:25.106Z,1.02
2023-05-04T00:31:52.314Z,0.80
2023-05-04T00:34:19.238Z,0.90
2023-05-04T00:36:46.540Z,0.93
2023-05-04T00:39:14.040Z,1.00
2023-05-04T00:41:41.306Z,0.98
2023-05-04T00:44:08.417Z,0.82
2023-05-04T00:46:37.762Z,0.80
2023-05-04T00:49:05.674Z,0.90
2023-05-04T00:51:33.268Z,1.02
2023-05-04T00:54:00.430Z,0.90
2023-05-04T00:56:28.993Z,0.82
2023-05-04T00:58:57.920Z,0.80
2023-05-04T01:01:26.068Z,0.95
2023-05-04T01:03:55.148Z,0.73
2023-05-04T01:06:37.061Z,0.75
2023-05-04T01:09:17.434Z,0.80
2023-05-04T01:12:15.909Z,0.80
2023-05-04T01:14:44.153Z,0.70
2023-05-04T01:17:12.079Z,0.73
2023-05-04T01:19:39.122Z,1.05
2023-05-04T01:22:06.129Z,0.90
2023-05-04T01:24:33.666Z,0.77
2023-05-04T01:27:09.460Z,0.80
2023-05-04T01:30:03.789Z,0.70
2023-05-04T01:32:32.439Z,0.80
2023-05-04T01:35:00.163Z,0.80
2023-05-04T01:37:27.209Z,1.02
2023-05-04T01:39:54.199Z,0.73
2023-05-04T01:42:21.193Z,0.80
2023-05-04T01:44:48.145Z,0.77
2023-05-04T01:47:17.437Z,0.93
2023-05-04T01:49:44.355Z,0.82
2023-05-04T01:52:11.334Z,1.00
2023-05-04T01:54:38.233Z,0.80
2023-05-04T01:57:05.154Z,0.93
2023-05-04T01:59:32.029Z,0.70
2023-05-04T02:01:59.159Z,1.05
2023-05-04T02:04:27.050Z,0.80
2023-05-04T02:06:53.965Z,0.80
2023-05-04T02:09:21.291Z,0.93
2023-05-04T02:11:48.390Z,0.88
2023-05-04T02:14:15.486Z,0.90
2023-05-04T02:16:42.425Z,0.80
2023-05-04T02:19:11.954Z,0.80
2023-05-04T02:21:39.384Z,0.93
2023-05-04T02:24:07.003Z,1.00
2023-05-04T02:26:34.496Z,1.05
2023-05-04T02:29:03.410Z,1.00
2023-05-04T02:31:30.299Z,1.00
2023-05-04T02:33:57.231Z,1.08
2023-05-04T02:36:25.281Z,0.90
2023-05-04T02:38:52.233Z,0.77
2023-05-04T02:41:19.131Z,1.08
2023-05-04T02:43:46.059Z,1.00
2023-05-04T02:46:13.003Z,0.77
2023-05-04T02:48:40.163Z,1.00
2023-05-04T02:51:07.143Z,1.10
2023-05-04T02:53:34.271Z,0.80
2023-05-04T02:56:01.362Z,0.77
2023-05-04T02:58:28.326Z,0.70
2023-05-04T03:00:56.117Z,1.02
2023-05-04T03:03:23.148Z,0.93
2023-05-04T03:05:50.037Z,0.90
2023-05-04T03:08:17.001Z,1.00
2023-05-04T03:10:44.269Z,0.85
2023-05-04T03:13:13.458Z,0.93
2023-05-04T03:15:42.201Z,1.23
2023-05-04T03:18:09.330Z,1.20
2023-05-04T03:20:37.502Z,1.25
2023-05-04T03:23:06.841Z,1.10
2023-05-04T03:25:34.124Z,0.90
2023-05-04T03:28:02.156Z,1.20
2023-05-04T03:30:29.060Z,1.10
2023-05-04T03:33:01.618Z,1.10
2023-05-04T03:35:29.884Z,1.42
2023-05-04T03:37:57.957Z,0.85
2023-05-04T03:40:25.121Z,1.10
2023-05-04T03:42:54.529Z,1.00
2023-05-04T03:45:22.999Z,0.88
2023-05-04T03:47:51.516Z,1.00
2023-05-04T03:50:21.664Z,1.20
2023-05-04T03:52:49.846Z,0.90
2023-05-04T03:55:19.490Z,0.85
2023-05-04T03:57:49.673Z,0.90
2023-05-04T04:00:17.466Z,1.20
2023-05-04T04:02:53.946Z,1.08
2023-05-04T04:05:21.223Z,0.98
2023-05-04T04:07:50.161Z,0.90
2023-05-04T04:10:17.188Z,1.15
2023-05-04T04:12:44.213Z,1.10
2023-05-04T04:15:11.947Z,1.27
2023-05-04T04:17:39.133Z,0.98
2023-05-04T04:20:07.029Z,1.13
2023-05-04T04:22:34.219Z,1.13
2023-05-04T04:25:01.598Z,1.00
2023-05-04T04:27:28.577Z,1.30
2023-05-04T04:29:55.708Z,1.13
2023-05-04T04:32:22.833Z,1.33
2023-05-04T04:34:49.883Z,1.02
2023-05-04T04:37:16.892Z,1.27
2023-05-04T04:39:43.960Z,1.10
2023-05-04T04:42:11.724Z,1.00
2023-05-04T04:44:39.315Z,1.17
2023-05-04T04:47:06.708Z,1.20
2023-05-04T04:49:33.700Z,1.30
2023-05-04T04:52:01.847Z,1.60
2023-05-04T04:54:30.213Z,1.52
2023-05-04T04:56:57.198Z,1.20
2023-05-04T04:59:24.947Z,1.08
2023-05-04T05:01:52.135Z,1.00
2023-05-04T05:04:19.994Z,1.15
2023-05-04T05:06:48.927Z,1.20
2023-05-04T05:09:16.017Z,1.30
2023-05-04T05:11:43.106Z,1.40
2023-05-04T05:14:10.371Z,1.02
2023-05-04T05:16:37.448Z,1.13
2023-05-04T05:19:08.895Z,1.30
2023-05-04T05:21:38.276Z,1.10
2023-05-04T05:24:05.804Z,1.27
2023-05-04T05:26:33.962Z,1.55
2023-05-04T05:29:03.449Z,1.40
2023-05-04T05:31:30.665Z,1.13
2023-05-04T05:33:57.741Z,1.30
2023-05-04T05:36:24.681Z,1.25
2023-05-04T05:38:52.513Z,1.52
2023-05-04T05:41:20.469Z,1.35
2023-05-04T05:43:47.973Z,1.83
2023-05-04T05:46:15.036Z,1.80
2023-05-04T05:48:42.933Z,1.70
2023-05-04T05:51:10.089Z,2.13
2023-05-04T05:53:38.926Z,1.60
2023-05-04T05:56:06.177Z,1.90
2023-05-04T05:58:33.817Z,1.88
2023-05-04T06:01:00.988Z,1.45
2023-05-04T06:03:28.204Z,1.85
2023-05-04T06:05:57.226Z,1.30
2023-05-04T06:08:24.375Z,1.20
2023-05-04T06:10:51.618Z,1.58
2023-05-04T06:13:18.705Z,1.77
2023-05-04T06:15:53.210Z,1.55
2023-05-04T06:18:20.902Z,1.65
2023-05-04T06:20:48.163Z,1.50
2023-05-04T06:23:16.600Z,1.52
2023-05-04T06:25:43.561Z,1.83
2023-05-04T06:28:10.489Z,2.03
2023-05-04T06:30:37.445Z,1.88
2023-05-04T06:33:04.679Z,2.17
2023-05-04T06:35:31.677Z,1.92
2023-05-04T06:37:58.873Z,1.67
2023-05-04T06:40:26.770Z,2.10
2023-05-04T06:42:53.880Z,2.20
2023-05-04T06:45:21.022Z,2.28
2023-05-04T06:47:48.143Z,2.13
2023-05-04T06:50:15.649Z,2.40
2023-05-04T06:52:44.139Z,2.22
2023-05-04T06:55:11.434Z,2.25
2023-05-04T06:57:40.935Z,2.30
2023-05-04T07:00:08.612Z,2.92
2023-05-04T07:02:35.955Z,2.90
2023-05-04T07:05:03.980Z,3.25
2023-05-04T07:07:36.340Z,3.50
2023-05-04T07:10:03.733Z,3.42
2023-05-04T07:12:30.826Z,3.92
2023-05-04T07:14:57.775Z,3.50
2023-05-04T07:17:25.581Z,4.10
2023-05-04T07:19:54.836Z,4.45
2023-05-04T07:22:21.999Z,3.90
2023-05-04T07:24:49.167Z,3.90
2023-05-04T07:27:16.132Z,4.28
2023-05-04T07:29:43.889Z,4.38
2023-05-04T07:32:11.314Z,4.35
2023-05-04T07:34:45.796Z,4.55
2023-05-04T07:37:22.548Z,4.47
2023-05-04T07:39:49.628Z,4.60
2023-05-04T07:42:16.811Z,4.72
2023-05-04T07:44:43.803Z,4.43
2023-05-04T07:47:10.810Z,4.88
2023-05-04T07:49:37.766Z,4.55
2023-05-04T07:52:04.933Z,5.35
2023-05-04T07:54:32.124Z,4.70
2023-05-04T07:57:03.432Z,4.60
2023-05-04T07:59:33.770Z,4.85
2023-05-04T08:02:00.962Z,5.00
2023-05-04T08:04:28.067Z,4.70
2023-05-04T08:06:55.044Z,4.65
2023-05-04T08:09:22.016Z,4.78
2023-05-04T08:11:49.917Z,4.60
2023-05-04T08:14:20.574Z,4.25
2023-05-04T08:16:47.801Z,3.65
2023-05-04T08:19:14.912Z,4.80
2023-05-04T08:21:42.010Z,5.30
2023-05-04T08:24:09.149Z,4.85
2023-05-04T08:26:39.668Z,4.30
2023-05-04T08:29:10.944Z,4.20
2023-05-04T08:31:38.112Z,3.63
2023-05-04T08:34:05.626Z,3.90
2023-05-04T08:36:34.351Z,3.83
2023-05-04T08:39:01.472Z,3.92
2023-05-04T08:41:28.653Z,3.45
2023-05-04T08:43:56.012Z,3.97
2023-05-04T08:46:23.171Z,3.67
2023-05-04T08:48:50.475Z,4.10
2023-05-04T08:51:19.106Z,3.42
2023-05-04T08:53:46.750Z,3.53
2023-05-04T08:56:16.477Z,3.25
2023-05-04T08:58:53.465Z,3.58
2023-05-04T09:01:22.267Z,3.45
2023-05-04T09:03:50.167Z,3.40
2023-05-04T09:06:17.518Z,3.33
2023-05-04T09:08:48.887Z,3.63
2023-05-04T09:11:17.052Z,3.80
2023-05-04T09:13:44.004Z,3.97
2023-05-04T09:16:12.247Z,3.65
2023-05-04T09:18:43.534Z,3.80
2023-05-04T09:21:12.998Z,4.50
2023-05-04T09:23:47.472Z,5.03
2023-05-04T09:26:15.154Z,4.35
2023-05-04T09:28:45.215Z,4.38
2023-05-04T09:31:12.373Z,3.90
2023-05-04T09:33:39.434Z,4.45
2023-05-04T09:36:15.032Z,4.38
2023-05-04T09:38:42.290Z,3.90
2023-05-04T09:41:09.952Z,4.80
2023-05-04T09:43:40.551Z,5.00
2023-05-04T09:46:09.071Z,4.10
2023-05-04T09:48:36.359Z,4.47
2023-05-04T09:51:04.316Z,4.38
2023-05-04T09:53:32.614Z,4.40
2023-05-04T09:56:02.201Z,4.47
2023-05-04T09:58:33.193Z,3.97
2023-05-04T10:01:04.514Z,4.40
2023-05-04T10:03:32.660Z,3.90
2023-05-04T10:06:00.807Z,3.90
2023-05-04T10:08:29.012Z,3.60
2023-05-04T10:10:57.356Z,3.92
2023-05-04T10:13:25.298Z,4.00
2023-05-04T10:16:14.325Z,3.70
2023-05-04T10:18:50.201Z,4.07
2023-05-04T10:21:35.907Z,3.97
2023-05-04T10:24:27.151Z,4.10
2023-05-04T10:27:12.214Z,4.47
2023-05-04T10:29:44.260Z,4.43
2023-05-04T10:32:22.240Z,4.20
2023-05-04T10:34:49.760Z,4.25
2023-05-04T10:37:22.033Z,4.82
2023-05-04T10:39:53.657Z,4.88
2023-05-04T10:42:20.925Z,5.00
2023-05-04T10:44:55.333Z,4.55
2023-05-04T10:47:33.383Z,4.82
2023-05-04T10:50:08.434Z,5.13
2023-05-04T10:52:49.438Z,5.07
2023-05-04T10:55:17.450Z,5.00
2023-05-04T10:57:55.995Z,4.50
2023-05-04T11:00:24.481Z,4.40
2023-05-04T11:02:52.488Z,4.97
2023-05-04T11:05:20.497Z,4.80
2023-05-04T11:22:32.512Z,4.28
2023-05-04T11:31:30.735Z,5.07
2023-05-04T11:42:14.470Z,5.00
2023-05-04T11:56:41.170Z,5.30
2023-05-04T12:17:03.515Z,4.43
2023-05-04T12:48:56.025Z,6.03
2023-05-04T13:00:29.311Z,6.07
2023-05-04T14:53:08.373Z,4.10
2023-05-04T16:00:15.588Z,4.00
2023-05-04T16:11:45.598Z,3.10
2023-05-04T16:14:13.233Z,3.17
2023-05-04T16:16:41.474Z,3.20
2023-05-04T16:19:10.872Z,3.45
2023-05-04T16:21:38.757Z,4.00
2023-05-04T16:24:07.744Z,3.78
2023-05-04T16:26:37.084Z,4.00
2023-05-04T16:29:04.203Z,4.47
2023-05-04T16:31:31.230Z,3.97
2023-05-04T16:33:58.535Z,3.85
2023-05-04T16:36:26.739Z,3.35
2023-05-04T16:38:53.818Z,3.88
2023-05-04T16:41:21.141Z,3.50
2023-05-04T16:43:49.275Z,3.38
2023-05-04T16:46:17.031Z,3.42
2023-05-04T16:48:44.014Z,4.35
2023-05-04T16:51:11.004Z,3.72
2023-05-04T16:53:38.030Z,3.80
2023-05-04T16:56:05.320Z,3.72
2023-05-04T16:58:32.448Z,3.83
2023-05-04T17:00:59.601Z,3.30
2023-05-04T17:03:26.761Z,3.85
2023-05-04T17:05:53.870Z,4.20
2023-05-04T17:08:20.819Z,4.18
2023-05-04T17:10:47.851Z,4.40
2023-05-04T17:13:15.085Z,4.28
2023-05-04T17:15:42.052Z,3.85
2023-05-04T17:18:09.126Z,4.20
2023-05-04T17:20:38.565Z,3.67
2023-05-04T17:23:05.805Z,4.25
2023-05-04T17:25:34.089Z,4.25
2023-05-04T17:28:01.126Z,3.80
2023-05-04T17:30:28.093Z,3.72
2023-05-04T17:32:57.402Z,4.10
2023-05-04T17:35:26.212Z,3.72
2023-05-04T17:37:57.984Z,3.88
2023-05-04T17:40:27.745Z,4.40
2023-05-04T17:42:55.660Z,4.07
2023-05-04T17:45:23.006Z,4.28
2023-05-04T17:47:53.289Z,3.83
2023-05-04T17:50:21.319Z,3.80
2023-05-04T17:52:56.194Z,3.70
2023-05-04T17:55:24.623Z,3.90
2023-05-04T17:57:55.293Z,4.50
2023-05-04T18:00:23.067Z,3.70
2023-05-04T18:02:50.213Z,3.70
2023-05-04T18:05:17.198Z,4.03
2023-05-04T18:07:44.106Z,4.13
2023-05-04T18:10:11.422Z,3.45
2023-05-04T18:12:38.614Z,3.90
2023-05-04T18:15:08.466Z,3.40
2023-05-04T18:17:37.868Z,4.00
2023-05-04T18:20:08.247Z,3.90
2023-05-04T18:22:35.568Z,4.60
2023-05-04T18:25:02.937Z,4.32
2023-05-04T18:27:34.336Z,5.15
2023-05-04T18:30:02.123Z,4.82
2023-05-04T18:32:29.220Z,4.55
2023-05-04T18:34:58.080Z,5.25
2023-05-04T18:37:25.599Z,5.30
2023-05-04T18:39:52.631Z,4.82
2023-05-04T18:42:19.673Z,5.47
2023-05-04T18:44:46.898Z,5.80
2023-05-04T18:47:14.182Z,5.47
2023-05-04T18:49:41.365Z,5.38
2023-05-04T18:52:08.481Z,5.03
2023-05-04T18:54:35.390Z,5.90
2023-05-04T18:57:03.461Z,6.38
2023-05-04T18:59:34.016Z,6.25
2023-05-04T19:02:02.223Z,6.85
2023-05-04T19:04:29.703Z,5.88
2023-05-04T19:06:58.008Z,5.78
2023-05-04T19:09:25.769Z,6.07
2023-05-04T19:11:55.879Z,6.53
2023-05-04T19:14:22.776Z,6.00
2023-05-04T19:16:49.925Z,6.10
2023-05-04T19:19:16.821Z,5.97
2023-05-04T19:21:44.022Z,6.35
2023-05-04T19:24:10.900Z,6.45
2023-05-04T19:26:39.073Z,6.53
2023-05-04T19:29:06.019Z,6.60
2023-05-04T19:31:33.082Z,6.10
2023-05-04T19:34:00.089Z,6.60
2023-05-04T19:36:27.590Z,7.00
2023-05-04T19:38:54.678Z,7.32
2023-05-04T19:41:22.096Z,6.88
2023-05-04T19:43:49.020Z,6.55
2023-05-04T19:46:16.031Z,7.03
2023-05-04T19:48:43.778Z,6.70
2023-05-04T19:51:11.181Z,6.47
2023-05-04T19:53:38.273Z,6.85
2023-05-04T19:56:05.404Z,6.75
2023-05-04T19:58:32.385Z,7.25
2023-05-04T20:00:59.516Z,7.38
2023-05-04T20:03:28.221Z,7.22
2023-05-04T20:05:55.732Z,7.97
2023-05-04T20:08:22.646Z,7.95
2023-05-04T20:10:49.528Z,8.25
2023-05-04T20:13:16.517Z,8.25
2023-05-04T20:15:43.521Z,8.18
2023-05-04T20:18:10.613Z,8.15
2023-05-04T20:20:37.636Z,9.00
2023-05-04T20:23:04.554Z,8.73
2023-05-04T20:25:31.879Z,7.50
2023-05-04T20:27:58.915Z,8.27
2023-05-04T20:30:28.999Z,10.00
2023-05-04T20:32:56.128Z,8.80
2023-05-04T20:35:23.045Z,8.00
2023-05-04T20:37:50.130Z,8.35
2023-05-04T20:40:17.301Z,8.20
2023-05-04T20:42:44.400Z,8.35
2023-05-04T20:45:11.414Z,8.23
2023-05-04T20:47:38.589Z,8.20
2023-05-04T20:50:07.986Z,8.15
2023-05-04T20:52:35.174Z,7.82
2023-05-04T20:55:02.214Z,8.73
2023-05-04T20:57:29.139Z,7.65
2023-05-04T20:59:56.605Z,8.30
2023-05-04T21:02:23.605Z,8.25
2023-05-04T21:04:50.860Z,8.93
2023-05-04T21:07:18.704Z,8.75
2023-05-04T21:09:45.732Z,8.73
2023-05-04T21:12:12.762Z,9.18
2023-05-04T21:14:39.686Z,9.25
2023-05-04T21:17:07.406Z,8.57
2023-05-04T21:19:36.330Z,8.60
2023-05-04T21:22:03.301Z,8.77
2023-05-04T21:24:32.171Z,9.02
2023-05-04T21:26:59.940Z,8.77
2023-05-04T21:29:26.878Z,9.20
2023-05-04T21:31:57.486Z,8.80
2023-05-04T21:34:24.985Z,8.40
2023-05-04T21:36:51.893Z,9.30
2023-05-04T21:39:18.911Z,9.15
2023-05-04T21:41:45.940Z,9.30
2023-05-04T21:44:13.094Z,9.55
2023-05-04T21:46:40.080Z,9.80
2023-05-04T21:49:07.953Z,9.38
2023-05-04T21:51:34.934Z,9.48
2023-05-04T21:54:02.246Z,9.52
2023-05-04T21:56:31.925Z,8.63
2023-05-04T21:58:58.961Z,9.73
2023-05-04T22:01:27.060Z,9.18
2023-05-04T22:03:54.111Z,9.95
2023-05-04T22:06:22.182Z,9.45
2023-05-04T22:08:49.350Z,9.15
2023-05-04T22:11:16.405Z,9.32
2023-05-04T22:13:43.267Z,9.20
2023-05-04T22:16:10.199Z,9.45
2023-05-04T22:18:37.491Z,10.15
2023-05-04T22:21:04.589Z,9.35
2023-05-04T22:23:31.680Z,9.27
2023-05-04T22:25:58.707Z,9.55
2023-05-04T22:28:26.449Z,10.73
2023-05-04T22:30:53.462Z,9.38
2023-05-04T22:33:20.470Z,9.75
2023-05-04T22:35:47.413Z,9.63
2023-05-04T22:38:14.692Z,9.30
2023-05-04T22:40:43.124Z,9.02
2023-05-04T22:43:10.303Z,9.85
2023-05-04T22:45:38.369Z,9.55
2023-05-04T22:48:05.369Z,9.05
2023-05-04T22:50:32.375Z,10.23
2023-05-04T22:52:59.474Z,10.57
2023-05-04T22:55:27.071Z,9.95
2023-05-04T22:57:54.216Z,10.93
2023-05-04T23:00:21.336Z,10.80
2023-05-04T23:02:48.422Z,10.30
2023-05-04T23:05:15.791Z,10.50
2023-05-04T23:07:42.742Z,10.32
2023-05-04T23:10:10.473Z,10.50
2023-05-04T23:12:37.998Z,10.68
2023-05-04T23:15:06.621Z,10.55
2023-05-04T23:17:34.349Z,10.68
2023-05-04T23:20:01.484Z,11.48
2023-05-04T23:22:28.378Z,10.90
2023-05-04T23:24:58.994Z,10.85
2023-05-04T23:27:26.939Z,11.02
2023-05-04T23:29:53.994Z,11.80
2023-05-04T23:32:20.906Z,10.88
2023-05-04T23:34:47.837Z,10.63
2023-05-04T23:37:16.924Z,11.52
2023-05-04T23:39:47.032Z,10.60
2023-05-04T23:42:14.084Z,11.32
2023-05-04T23:44:41.068Z,11.27
2023-05-04T23:47:08.029Z,11.15
2023-05-04T23:49:34.956Z,10.77
2023-05-04T23:52:01.979Z,10.95
2023-05-04T23:54:28.895Z,11.93
2023-05-04T23:56:55.865Z,11.57
2023-05-04T23:59:22.833Z,12.20
